Terminal Aerodrome Forecast
Issued by NWS

Home | Current Version | Previous Version | Graphics & Text | Print | Product List | Glossary On
Versions: 1 2 3 4 5 6 7 8 9 10 11 12 13 14 15 16 17 18 19 20 21 22 23 24 25 26 27 28 29 30 31 32
000
FTUS43 KGRB 270500
TAFRHI
TAF
KRHI 270520Z 2706/2806 23004KT P6SM BKN120
      TEMPO 2706/2709 28005KT 5SM -SHRA SCT040 BKN060
     FM271400 29009KT P6SM VCSH SCT040 BKN060
      TEMPO 2716/2720 3SM -SHRA BR SCT015 BKN035
     FM272100 34012KT P6SM BKN015 BKN030
     FM280100 01008KT P6SM SCT020=

USA.gov is the U.S. government's official web portal to all federal, state and local government web resources and services.